To NAV CANADA Home Page Login to a new session Search on AWWS site Feedback and Comments Disclaimer Vers la page française équivalente Tips FAQ What's new on the site To the Forecasts and Observations / NOTAM section To "File a Flight Plan" website Publications and other links Update of the User's profile FIC Telephone Numbers My Weather Data Folder Route Weather Data Regional Weather Data Local Weather Data To the Forecasts and Observations / NOTAM section
Request Generated 04/01/2015 at 10:34:52 UTC . Weather information available at that time is displayed.

METAR/TAF

WINNIPEG/JAMES ARMSTRONG RICHARDSON INTL/MB    

METAR CYWG 011000Z 12012KT 15SM BKN210 04/M01 A2960 RMK CI5 PRESFR
SLP029=
METAR CYWG 010900Z 12012KT 15SM SCT150 04/M01 A2964 RMK AC4 SLP045=
METAR CYWG 010800Z 13012KT 15SM SCT160 04/M00 A2968 RMK AC4 SLP056=

TAF CYWG 010538Z 0106/0206 09010KT P6SM SCT140 BKN210
BECMG 0109/0111 14018KT
FM012200 28020G30KT P6SM SCT020 BKN040
FM020200 26015G25KT P6SM SCT030
RMK NXT FCST BY 011200Z=
Your time UTC time
Weather data provided by Environment Canada and NAV CANADA